Participated 2 times
Between 1996 and 1997
Cyril Saugrain, France
Tour de France 2026 starts from Edinburgh, Scotland in

Stats and Facts from
Tour de France.

2026   2025   2024   2023  2022  2021  2020  2019   2018  2017   2016   2015  2014  2013   2012   2011  2010   2009   2008   2007   2006   2005   2004   2003   2002   2001   2000   1999   1998   1997  1996   1995   1994   1993   1992  1991   1990   1989   1988   1987   1986   1985   1984   1983  1982  1981   1980   1979  1978  1977   1976  1975  1974  1973   1972   1971   1970  1969   1968   1967   1966   1965  1964  1963   1962   1961   1960   1959   1958   1957  1956   1955   1954   1953   1952  1951  1950  1949   1948  1947  1939   1938   1937   1936   1935   1934   1933  1932   1931   1930  1929   1928   1927   1926  1925  1924  1923   1922   1921   1920   1919  1914   1913   1912   1911   1910  1909   1908   1907   1906  1905  1904   1903 

Tourstats
Sitemap

After stage 21 - 2026:
 16451 starters.
  5513 different riders.
  689 teams.
  2419 stages.
  470 restdays.
  469752.50 km.
  5946 abandoned riders.

Click map for 2003 route.
Facts from Tour de France 2003
  |   Stages.  |   Stage winners.  |   Days in jerseys.  |   Teams.  |   All riders.  |   All riders by age.  |   All riders from.  |  

  |   Rookies.  |   Withdrawls.  |   Average speed.  |   GC.  |   Polka  |   Green  |   White  |   Summits. (In tour)  |   Miscellaneous.  |  

Stage 8 on July 13th. 2003
Pick a stage:  Pro  1  2  3  4  5  6  7  8  9  10  11  12  13  14  15  16  17  18  19  20  

After stage 8:    Lance Armstrong  
  SallanchesAlpe-d´Huez | Dist: 219.00km. | Winner: Iban Mayo

Podium
2  Col du Télégraphe Pierrick  Fédrigoafter133.50 km.

HC  Col du Galibier Stefano Garzelliafter157.00 km.

HC  Alpe d'Huez Iban Mayoafter219.00 km.


Average speed for all riders in stage:  34,076 km./hr.

1
 Iban Mayo  Euskaltel-Euskadi05h 57' 30"=36,755  km/h

2
 Alexandre Vinokourov  Telekom05h 59' 15"+  00:01:45 =36,576  km/h

3
 Lance Armstrong  US Postal-Berry Floor05h 59' 42"+  00:02:12 =36,530  km/h

4  Francisco Mancebo  ibanesto.com05h 59' 42"+  00:02:12 =36,530  km/h

5  Haimar  Zubeldía  Euskaltel-Euskadi05h 59' 42"+  00:02:12 =36,530  km/h

6  Joseba Beloki  O.N.C.E.-Eroski05h 59' 42"+  00:02:12 =36,530  km/h

7  Tyler Hamilton  CSC05h 59' 42"+  00:02:12 =36,530  km/h

8  Ivan Basso  Fassa Bortolo05h 59' 42"+  00:02:12 =36,530  km/h

9  Roberto Laiseka  Euskaltel-Euskadi05h 59' 42"+  00:02:12 =36,530  km/h

37  Alexandre Botcharov  AG2R-Decathlon05h 59' 42"+  00:02:12 =36,530  km/h

10  Pietro Caucchioli  Alessio06h 01' 06"+  00:03:36 =36,389  km/h

11  Christophe Moreau  Credit Agricole06h 01' 06"+  00:03:36 =36,389  km/h

12  Roberto Heras  US Postal-Berry Floor06h 01' 06"+  00:03:36 =36,389  km/h

13  Jan Ullrich  Bianchi06h 01' 06"+  00:03:36 =36,389  km/h

14  Denis Menchov  ibanesto.com06h 01' 45"+  00:04:15 =36,323  km/h

15  Stefano Garzelli  Vini Caldirola-Saunier Duval06h 02' 16"+  00:04:46 =36,272  km/h

16  Georg Totschnig  Gerolsteiner06h 02' 16"+  00:04:46 =36,272  km/h

17  Jörg Jaksche  O.N.C.E.-Eroski06h 02' 16"+  00:04:46 =36,272  km/h

18  Manuel Beltran  US Postal-Berry Floor06h 02' 16"+  00:04:46 =36,272  km/h

19  Michael Boogerd  Rabobank06h 02' 29"+  00:04:59 =36,250  km/h

20  Carlos Sastre  CSC06h 02' 56"+  00:05:26 =36,205  km/h

21  Mikel Astarloza  AG2R-Decathlon06h 03' 34"+  00:06:04 =36,142  km/h

22  David Millar  Cofidis Credit Par Telephone06h 03' 39"+  00:06:09 =36,134  km/h

23  Peter Luttenberger  CSC06h 04' 22"+  00:06:52 =36,063  km/h

24  Juan Miguel Mercado  ibanesto.com06h 04' 22"+  00:06:52 =36,063  km/h

25  Iván Parra  Kelme-Costa Blanca06h 04' 22"+  00:06:52 =36,063  km/h

26  David Moncoutié  Cofidis Credit Par Telephone06h 04' 22"+  00:06:52 =36,063  km/h

27  Giuseppe Guerini  Telekom06h 05' 16"+  00:07:46 =35,974  km/h

28  José-Luis Rubiera  US Postal-Berry Floor06h 05' 16"+  00:07:46 =35,974  km/h

29  Didier Rous  Brioches La Boulangere06h 05' 21"+  00:07:51 =35,966  km/h

30  David Plaza  Bianchi06h 05' 21"+  00:07:51 =35,966  km/h

31  Sylvain Chavanel  Brioches La Boulangere06h 05' 41"+  00:08:11 =35,933  km/h

32  Massimiliano Lelli  Cofidis Credit Par Telephone06h 06' 09"+  00:08:39 =35,887  km/h

33  Laurent Dufaux  Alessio06h 06' 31"+  00:09:01 =35,851  km/h

34  Michael Rogers  Quick Step-Davitamon06h 06' 59"+  00:09:29 =35,805  km/h

35  Richard Virenque  Quick Step-Davitamon06h 06' 59"+  00:09:29 =35,805  km/h

36  José Azevedo  O.N.C.E.-Eroski06h 06' 59"+  00:09:29 =35,805  km/h

38  Felix Garcia Casas  Bianchi06h 08' 01"+  00:10:31 =35,705  km/h

39  Laurent Lefèvre  Jean Delatour06h 08' 01"+  00:10:31 =35,705  km/h

40  Gerrit Glomser  Saeco Macchine Da Caffe-Cannondale06h 08' 01"+  00:10:31 =35,705  km/h

41  Marcos Serrano  O.N.C.E.-Eroski06h 08' 01"+  00:10:31 =35,705  km/h

42  Grischa Niermann  Rabobank06h 08' 40"+  00:11:10 =35,642  km/h

43  Daniele Nardello  Telekom06h 09' 29"+  00:11:59 =35,563  km/h

44  Jörg Ludewig  Saeco Macchine Da Caffe-Cannondale06h 10' 12"+  00:12:42 =35,494  km/h

45  Gilberto Simoni  Saeco Macchine Da Caffe-Cannondale06h 10' 12"+  00:12:42 =35,494  km/h

46  Evgueni Petrov  ibanesto.com06h 10' 12"+  00:12:42 =35,494  km/h

47  David Etxebarria  Euskaltel-Euskadi06h 11' 45"+  00:14:15 =35,346  km/h

48  José Enrique Gutierrez  Kelme-Costa Blanca06h 13' 45"+  00:16:15 =35,157  km/h

49  Aitor Garmendia  Bianchi06h 14' 45"+  00:17:15 =35,063  km/h

50  Javier Rodriguez  Kelme-Costa Blanca06h 15' 17"+  00:17:47 =35,014  km/h

51  Guido Trentin  Cofidis Credit Par Telephone06h 15' 48"+  00:18:18 =34,965  km/h

52  Michael Blaudzun  CSC06h 16' 20"+  00:18:50 =34,916  km/h

53  Floyd Landis  US Postal-Berry Floor06h 16' 33"+  00:19:03 =34,896  km/h

54  Iñigo Landaluze  Euskaltel-Euskadi06h 16' 33"+  00:19:03 =34,896  km/h

55  George Hincapie  US Postal-Berry Floor06h 16' 33"+  00:19:03 =34,896  km/h

56  Stéphane Goubert  Jean Delatour06h 17' 47"+  00:20:17 =34,782  km/h

57  Patrice Halgand  Jean Delatour06h 17' 47"+  00:20:17 =34,782  km/h

58  Koos Moerenhout  Lotto-Domo06h 17' 47"+  00:20:17 =34,782  km/h

59  Jérôme Pineau  Brioches La Boulangere06h 18' 45"+  00:21:15 =34,693  km/h

60  Udo Bölts  Gerolsteiner06h 19' 54"+  00:22:24 =34,588  km/h

61  Andy Flickinger  AG2R-Decathlon06h 20' 01"+  00:22:31 =34,577  km/h

62  Iñigo Chaurreau  AG2R-Decathlon06h 20' 01"+  00:22:31 =34,577  km/h

63  Nicolas Fritsch  fdjeux.com06h 20' 21"+  00:22:51 =34,547  km/h

64  Laurent Brochard  AG2R-Decathlon06h 21' 05"+  00:23:35 =34,481  km/h

65  Markus Zberg  Gerolsteiner06h 22' 01"+  00:24:31 =34,396  km/h

66  René Andrle  O.N.C.E.-Eroski06h 22' 42"+  00:25:12 =34,335  km/h

67  Fabio Sacchi  Saeco Macchine Da Caffe-Cannondale06h 29' 11"+  00:31:41 =33,763  km/h

68  Andrea Noè  Alessio06h 29' 11"+  00:31:41 =33,763  km/h

69  Yuriy Krivtsov  Jean Delatour06h 29' 11"+  00:31:41 =33,763  km/h

70  Rik Verbrugghe  Lotto-Domo06h 29' 11"+  00:31:41 =33,763  km/h

71  Vladimir Miholjević  Alessio06h 29' 11"+  00:31:41 =33,763  km/h

72  Mario Aerts  Telekom06h 29' 11"+  00:31:41 =33,763  km/h

73  Nicki Sørensen  CSC06h 29' 11"+  00:31:41 =33,763  km/h

74  Christophe Brandt  Lotto-Domo06h 29' 11"+  00:31:41 =33,763  km/h

75  Davide Rebellin  Gerolsteiner06h 29' 11"+  00:31:41 =33,763  km/h

76  Matthias Kessler  Telekom06h 29' 11"+  00:31:41 =33,763  km/h

77  Leonardo Bertagnolli  Saeco Macchine Da Caffe-Cannondale06h 29' 11"+  00:31:41 =33,763  km/h

78  Mikel Pradera  O.N.C.E.-Eroski06h 29' 11"+  00:31:41 =33,763  km/h

79  Kurt Van De Wouwer  Quick Step-Davitamon06h 29' 11"+  00:31:41 =33,763  km/h

80  Isidro Nozal  O.N.C.E.-Eroski06h 29' 11"+  00:31:41 =33,763  km/h

81  Alberto Lopez  Euskaltel-Euskadi06h 29' 11"+  00:31:41 =33,763  km/h

82  Viatcheslav Ekimov  US Postal-Berry Floor06h 29' 11"+  00:31:41 =33,763  km/h

83  Pavel Padrnos  US Postal-Berry Floor06h 29' 11"+  00:31:41 =33,763  km/h

84  Vladimir Karpets  ibanesto.com06h 29' 11"+  00:31:41 =33,763  km/h

85  Marzio Bruseghin  Fassa Bortolo06h 29' 11"+  00:31:41 =33,763  km/h

86  Angel Luis Casero  Bianchi06h 29' 11"+  00:31:41 =33,763  km/h

87  Steve Zampieri  Vini Caldirola-Saunier Duval06h 29' 11"+  00:31:41 =33,763  km/h

88  Christophe Oriol  AG2R-Decathlon06h 29' 11"+  00:31:41 =33,763  km/h

89  Óscar Freire  Rabobank06h 29' 11"+  00:31:41 =33,763  km/h

90  Mikel Artetxe  Euskaltel-Euskadi06h 29' 11"+  00:31:41 =33,763  km/h

91  David Latasa  Kelme-Costa Blanca06h 29' 11"+  00:31:41 =33,763  km/h

92  Nicolas Jalabert  CSC06h 29' 11"+  00:31:41 =33,763  km/h

93  Andrea Peron  CSC06h 29' 11"+  00:31:41 =33,763  km/h

94  Victor Hugo Peña  US Postal-Berry Floor06h 29' 11"+  00:31:41 =33,763  km/h

95  Xabier Zandio  ibanesto.com06h 29' 11"+  00:31:41 =33,763  km/h

96  David Cañada  Quick Step-Davitamon06h 29' 11"+  00:31:41 =33,763  km/h

97  Serge Baguet  Lotto-Domo06h 29' 11"+  00:31:41 =33,763  km/h

98  Franck Renier  Brioches La Boulangere06h 29' 11"+  00:31:41 =33,763  km/h

99  Thomas  Voeckler  Brioches La Boulangere06h 29' 11"+  00:31:41 =33,763  km/h

100  Carlos Da Cruz  fdjeux.com06h 29' 11"+  00:31:41 =33,763  km/h

101  Salvatore Commesso  Saeco Macchine Da Caffe-Cannondale06h 29' 11"+  00:31:41 =33,763  km/h

102  Franco Pellizotti  Alessio06h 29' 11"+  00:31:41 =33,763  km/h

103  Leon van Bon  Lotto-Domo06h 29' 11"+  00:31:41 =33,763  km/h

104  Paolo Bettini  Quick Step-Davitamon06h 29' 11"+  00:31:41 =33,763  km/h

105  Pierrick  Fédrigo  Credit Agricole06h 29' 48"+  00:32:18 =33,710  km/h

106  Luca Paolini  Quick Step-Davitamon06h 30' 03"+  00:32:33 =33,688  km/h

107  Anthony Geslin  Brioches La Boulangere06h 30' 03"+  00:32:33 =33,688  km/h

108  Tobias Steinhauser  Bianchi06h 30' 21"+  00:32:51 =33,662  km/h

109  Ludovic Turpin  AG2R-Decathlon06h 30' 58"+  00:33:28 =33,609  km/h

110  Sandy Casar  fdjeux.com06h 31' 43"+  00:34:13 =33,545  km/h

111  Romāns Vainšteins  Vini Caldirola-Saunier Duval06h 32' 41"+  00:35:11 =33,462  km/h

112  Nicolas Portal  AG2R-Decathlon06h 32' 41"+  00:35:11 =33,462  km/h

113  Andrei Hauptman  Vini Caldirola-Saunier Duval06h 32' 41"+  00:35:11 =33,462  km/h

114  Unai Etxebarria  Euskaltel-Euskadi06h 33' 46"+  00:36:16 =33,370  km/h

115  Stefano Zanini  Saeco Macchine Da Caffe-Cannondale06h 39' 49"+  00:42:19 =32,865  km/h

116  Marco Milesi  Vini Caldirola-Saunier Duval06h 39' 49"+  00:42:19 =32,865  km/h

117  Erik Zabel  Telekom06h 39' 49"+  00:42:19 =32,865  km/h

118  Dario Andriotto  Vini Caldirola-Saunier Duval06h 39' 49"+  00:42:19 =32,865  km/h

119  Walter Bénéteau  Brioches La Boulangere06h 39' 49"+  00:42:19 =32,865  km/h

120  Fabrizio Guidi  Bianchi06h 39' 49"+  00:42:19 =32,865  km/h

121  Paolo Fornaciari  Saeco Macchine Da Caffe-Cannondale06h 39' 49"+  00:42:19 =32,865  km/h

122  Thomas Liese  Bianchi06h 39' 49"+  00:42:19 =32,865  km/h

123  Rolf Aldag  Telekom06h 39' 49"+  00:42:19 =32,865  km/h

124  Servais Knaven  Quick Step-Davitamon06h 39' 49"+  00:42:19 =32,865  km/h

125  Médéric Clain  Cofidis Credit Par Telephone06h 39' 49"+  00:42:19 =32,865  km/h

126  Christophe Edaleine  Jean Delatour06h 39' 49"+  00:42:19 =32,865  km/h

127  Paolo Bossoni  Vini Caldirola-Saunier Duval06h 39' 49"+  00:42:19 =32,865  km/h

128  Pablo Lastras  ibanesto.com06h 39' 49"+  00:42:19 =32,865  km/h

129  José Garcia Acosta  ibanesto.com06h 39' 49"+  00:42:19 =32,865  km/h

130  Jakob Piil  CSC06h 39' 49"+  00:42:19 =32,865  km/h

131  Uwe Peschel  Gerolsteiner06h 39' 49"+  00:42:19 =32,865  km/h

132  Sébastien Hinault  Credit Agricole06h 39' 49"+  00:42:19 =32,865  km/h

133  Samuel Dumoulin  Jean Delatour06h 39' 49"+  00:42:19 =32,865  km/h

134  László Bodrogi  Quick Step-Davitamon06h 39' 49"+  00:42:19 =32,865  km/h

135  Stéphane Auge  Credit Agricole06h 39' 49"+  00:42:19 =32,865  km/h

136  Eddy Mazzoleni  Vini Caldirola-Saunier Duval06h 39' 49"+  00:42:19 =32,865  km/h

137  Bekim Leif Christensen  CSC06h 39' 49"+  00:42:19 =32,865  km/h

138  Davide Bramati  Quick Step-Davitamon06h 39' 49"+  00:42:19 =32,865  km/h

139  David Munoz  Kelme-Costa Blanca06h 39' 49"+  00:42:19 =32,865  km/h

140  Thor Hushovd  Credit Agricole06h 39' 49"+  00:42:19 =32,865  km/h

141  Benoît Poilvet  Credit Agricole06h 39' 49"+  00:42:19 =32,865  km/h

142  Juan Antonio Flecha  ibanesto.com06h 39' 49"+  00:42:19 =32,865  km/h

143  Bradley McGee  fdjeux.com06h 39' 49"+  00:42:19 =32,865  km/h

144  Julian Usano  Kelme-Costa Blanca06h 39' 49"+  00:42:19 =32,865  km/h

145  Álvaro Gonzalez De Galdeano  O.N.C.E.-Eroski06h 39' 49"+  00:42:19 =32,865  km/h

146  Baden Cooke  fdjeux.com06h 39' 49"+  00:42:19 =32,865  km/h

147  Santiago Botero  Telekom06h 39' 49"+  00:42:19 =32,865  km/h

148  Iñigo Cuesta  Cofidis Credit Par Telephone06h 39' 49"+  00:42:19 =32,865  km/h

149  Maryan Hary  Brioches La Boulangere06h 39' 49"+  00:42:19 =32,865  km/h

150  Fred Rodriguez  Vini Caldirola-Saunier Duval06h 39' 49"+  00:42:19 =32,865  km/h

151  Philippe Gaumont  Cofidis Credit Par Telephone06h 39' 49"+  00:42:19 =32,865  km/h

152  Jens Voigt  Credit Agricole06h 39' 49"+  00:42:19 =32,865  km/h

153  Nicolas Vogondy  fdjeux.com06h 39' 49"+  00:42:19 =32,865  km/h

154  Cédric Vasseur  Cofidis Credit Par Telephone06h 39' 49"+  00:42:19 =32,865  km/h

155  Christophe Mengin  fdjeux.com06h 39' 49"+  00:42:19 =32,865  km/h

156  Danilo Di Luca  Saeco Macchine Da Caffe-Cannondale06h 39' 49"+  00:42:19 =32,865  km/h

157  Axel Merckx  Lotto-Domo06h 39' 49"+  00:42:19 =32,865  km/h

158  Stuart O'Grady  Credit Agricole06h 39' 49"+  00:42:19 =32,865  km/h

159  Andréas  Klöden  Telekom06h 39' 49"+  00:42:19 =32,865  km/h

160  Daniel Becke  Bianchi06h 39' 49"+  00:42:19 =32,865  km/h

161  Bram de Groot  Rabobank06h 39' 49"+  00:42:19 =32,865  km/h

162  Torsten Schmidt  Gerolsteiner06h 39' 49"+  00:42:19 =32,865  km/h

163  Marc Wauters  Rabobank06h 39' 49"+  00:42:19 =32,865  km/h

164  Robert Hunter  Rabobank06h 39' 49"+  00:42:19 =32,865  km/h

165  Matthew Wilson  fdjeux.com06h 39' 49"+  00:42:19 =32,865  km/h

166  Raffaele Ferrara  Alessio06h 39' 49"+  00:42:19 =32,865  km/h

167  Nick Gates  Lotto-Domo06h 39' 49"+  00:42:19 =32,865  km/h

168  Damien Nazon  Brioches La Boulangere06h 39' 49"+  00:42:19 =32,865  km/h

169  Jean-Patrick Nazon  Jean Delatour06h 39' 49"+  00:42:19 =32,865  km/h

170  Frédéric Finot  Jean Delatour06h 39' 49"+  00:42:19 =32,865  km/h

171  René Haselbacher  Gerolsteiner06h 39' 49"+  00:42:19 =32,865  km/h

172  Alessandro Bertolini  Alessio06h 40' 21"+  00:42:51 =32,821  km/h

173  Angelo Furlan  Alessio06h 41' 23"+  00:43:53 =32,737  km/h

174  Dario David Cioni  Fassa Bortolo06h 42' 38"+  00:45:08 =32,635  km/h

175  Robbie McEwen  Lotto-Domo06h 42' 53"+  00:45:23 =32,615  km/h

176  Remmert Wielinga  Rabobank06h 43' 01"+  00:45:31 =32,604  km/h

177  Hans De Clercq  Lotto-Domo06h 46' 43"+  00:49:13 =32,308  km/h

178  Lilian Jégou  Credit Agricole06h 47' 59"+  00:50:29 =32,207  km/h

179  Jimmy Casper  fdjeux.com06h 49' 18"+  00:51:48 =32,104  km/h


Withdrawls: 8
 RiderTeamReason
84   Aitor Gonzalez Fassa BortoloDid not start
85   Volodymir Gustov Fassa BortoloDid not start
87   Sven Montgomery Fassa BortoloDid not start
86   Nicola Loda Fassa BortoloDid not finish
101   Jose Ignacio Gutierrez Kelme-Costa BlancaDid not finish
108   Antonio Tauler Kelme-Costa BlancaDid not finish
212   Pierre Bourquenoud Jean DelatourDid not finish
178   Samuel Sanchez Euskaltel-EuskadiExceeded time limit
Todays birthdays.

1858 • Aimé Monin
1894 • Camille Nicou
1902 • Louis Millo
1902 • Aleardo Simoni
1903 • Jean-Gabriel Zenon
1926 • Isidoor De Ryck
1931 • Miguel Pacheco
1946 • Stéphane Abrahamian
1956 • Siegfried Hekimi
1957 • Peter Winnen
1958 • Marcel Russenberger
1958 • Patrick Versluys
1981 • Daniel Moreno
1984 • Chris Anker Sørensen
1989 • Joey Rosskopf

 

Optimized for Chrome - Edge
and Opera browsers.